createdAt,value
2022-08-26T00:02:36.389Z,19.54
2022-08-26T00:05:11.915Z,19.48
2022-08-26T00:08:08.441Z,19.43
2022-08-26T00:10:53.093Z,19.39
2022-08-26T00:13:54.011Z,19.36
2022-08-26T00:20:13.347Z,19.32
2022-08-26T00:23:18.156Z,19.31
2022-08-26T00:25:52.615Z,19.29
2022-08-26T00:28:32.337Z,19.28
2022-08-26T00:34:50.268Z,19.20
2022-08-26T00:37:22.168Z,19.17
2022-08-26T00:46:35.031Z,19.03
2022-08-26T00:49:39.600Z,18.97
2022-08-26T00:52:39.844Z,18.92
2022-08-26T00:56:34.148Z,18.87
2022-08-26T00:59:56.796Z,18.81
2022-08-26T01:03:22.346Z,18.77
2022-08-26T01:05:59.957Z,18.73
2022-08-26T01:08:31.893Z,18.70
2022-08-26T01:11:53.818Z,18.66
2022-08-26T01:15:17.489Z,18.62
2022-08-26T01:18:16.184Z,18.58
2022-08-26T01:21:01.785Z,18.53
2022-08-26T01:24:04.397Z,18.51
2022-08-26T01:27:24.945Z,18.49
2022-08-26T01:30:34.754Z,18.46
2022-08-26T01:36:40.198Z,18.40
2022-08-26T01:39:17.176Z,18.39
2022-08-26T01:49:06.663Z,18.35
2022-08-26T01:51:46.851Z,18.34
2022-08-26T01:54:28.085Z,18.34
2022-08-26T01:57:30.126Z,18.31
2022-08-26T02:01:14.150Z,18.29
2022-08-26T02:04:20.209Z,18.27
2022-08-26T02:06:59.258Z,18.25
2022-08-26T02:09:33.757Z,18.24
2022-08-26T02:12:20.478Z,18.22
2022-08-26T02:15:00.465Z,18.20
2022-08-26T02:17:43.802Z,18.20
2022-08-26T02:24:19.153Z,18.21
2022-08-26T02:26:53.745Z,18.27
2022-08-26T02:29:56.741Z,18.31
2022-08-26T02:32:30.010Z,18.32
2022-08-26T02:35:31.904Z,18.32
2022-08-26T02:38:10.002Z,18.34
2022-08-26T02:40:48.196Z,18.32
2022-08-26T02:43:31.518Z,18.28
2022-08-26T02:46:07.811Z,18.24
2022-08-26T02:48:47.380Z,18.22
2022-08-26T02:51:24.871Z,18.20
2022-08-26T02:54:23.280Z,18.20
2022-08-26T02:56:59.921Z,18.19
2022-08-26T03:02:38.512Z,18.14
2022-08-26T03:05:16.801Z,18.14
2022-08-26T03:14:57.269Z,18.02
2022-08-26T03:21:19.507Z,17.94
2022-08-26T03:24:15.908Z,17.91
2022-08-26T03:26:52.545Z,17.91
2022-08-26T03:29:49.516Z,17.90
2022-08-26T03:32:26.932Z,17.88
2022-08-26T03:34:59.377Z,17.86
2022-08-26T03:37:33.556Z,17.85
2022-08-26T03:40:13.064Z,17.84
2022-08-26T03:42:47.888Z,17.84
2022-08-26T03:45:55.258Z,17.83
2022-08-26T03:49:17.479Z,17.81
2022-08-26T03:51:53.388Z,17.78
2022-08-26T03:57:37.208Z,17.73
2022-08-26T04:00:38.232Z,17.70
2022-08-26T04:11:11.274Z,17.66
2022-08-26T04:14:11.184Z,17.65
2022-08-26T04:16:43.629Z,17.66
2022-08-26T04:19:45.249Z,17.67
2022-08-26T04:25:42.388Z,17.71
2022-08-26T04:28:17.537Z,17.74
2022-08-26T04:30:51.578Z,17.77
2022-08-26T04:38:00.961Z,17.90
2022-08-26T04:40:38.509Z,18.00
2022-08-26T04:43:12.623Z,18.08
2022-08-26T04:46:13.005Z,18.17
2022-08-26T04:55:55.415Z,18.50
2022-08-26T04:58:37.005Z,18.61
2022-08-26T05:01:13.307Z,18.69
2022-08-26T05:04:13.165Z,18.80
2022-08-26T05:07:18.821Z,18.90
2022-08-26T05:12:57.123Z,19.16
2022-08-26T05:15:31.436Z,19.26
2022-08-26T05:18:09.711Z,19.38
2022-08-26T05:21:43.071Z,19.51
2022-08-26T05:24:17.448Z,19.69
2022-08-26T05:26:54.865Z,19.81
2022-08-26T05:29:59.990Z,19.97
2022-08-26T05:32:35.149Z,20.13
2022-08-26T05:35:11.226Z,20.28
2022-08-26T05:37:43.652Z,20.45
2022-08-26T05:40:16.540Z,20.61
2022-08-26T05:42:50.632Z,20.76
2022-08-26T05:45:32.336Z,20.93
2022-08-26T05:48:04.374Z,21.10
2022-08-26T05:50:40.963Z,21.26
2022-08-26T05:53:20.335Z,21.42
2022-08-26T05:55:55.900Z,21.56
2022-08-26T05:58:29.080Z,21.71
2022-08-26T06:01:04.533Z,21.85
2022-08-26T06:03:40.122Z,21.97
2022-08-26T06:06:20.114Z,22.10
2022-08-26T06:09:02.734Z,22.24
2022-08-26T06:11:36.681Z,22.38
2022-08-26T06:14:10.174Z,22.49
2022-08-26T06:16:45.197Z,22.61
2022-08-26T06:19:18.082Z,22.75
2022-08-26T06:21:54.647Z,22.89
2022-08-26T06:24:44.977Z,23.01
2022-08-26T06:27:17.365Z,23.12
2022-08-26T06:29:50.579Z,23.19
2022-08-26T06:32:23.122Z,23.29
2022-08-26T06:34:57.234Z,23.37
2022-08-26T06:37:29.565Z,23.49
2022-08-26T06:40:03.336Z,23.58
2022-08-26T06:42:36.067Z,23.64
2022-08-26T06:45:09.763Z,23.70
2022-08-26T06:47:43.317Z,23.78
2022-08-26T06:50:16.096Z,23.88
2022-08-26T06:52:50.323Z,23.99
2022-08-26T06:55:23.401Z,24.08
2022-08-26T06:58:03.479Z,24.17
2022-08-26T07:00:37.062Z,24.26
2022-08-26T07:03:10.574Z,24.36
2022-08-26T07:05:43.144Z,24.46
2022-08-26T07:08:15.302Z,24.52
2022-08-26T07:10:47.367Z,24.56
2022-08-26T07:13:30.711Z,24.66
2022-08-26T07:16:04.227Z,24.81
2022-08-26T07:18:42.642Z,24.94
2022-08-26T07:21:18.791Z,25.08
2022-08-26T07:23:51.834Z,25.22
2022-08-26T07:26:31.504Z,25.33
2022-08-26T07:29:05.611Z,25.44
2022-08-26T07:31:42.963Z,25.56
2022-08-26T07:34:23.068Z,25.61
2022-08-26T07:36:55.263Z,25.67
2022-08-26T07:39:31.580Z,25.78
2022-08-26T07:42:08.662Z,25.85
2022-08-26T07:44:43.086Z,25.86
2022-08-26T07:47:24.880Z,25.90
2022-08-26T07:50:00.871Z,25.98
2022-08-26T07:52:34.329Z,26.03
2022-08-26T07:55:09.719Z,26.05
2022-08-26T07:57:42.846Z,26.12
2022-08-26T08:00:17.381Z,26.19
2022-08-26T08:02:51.257Z,26.24
2022-08-26T08:05:33.521Z,26.35
2022-08-26T08:08:26.855Z,26.43
2022-08-26T08:11:27.565Z,26.54
2022-08-26T08:17:25.517Z,26.68
2022-08-26T08:21:22.010Z,26.75
2022-08-26T08:23:58.511Z,26.81
2022-08-26T08:26:32.832Z,26.86
2022-08-26T08:29:05.145Z,26.96
2022-08-26T08:31:56.897Z,27.04
2022-08-26T08:34:31.645Z,27.12
2022-08-26T08:37:05.244Z,27.20
2022-08-26T08:39:39.379Z,27.22
2022-08-26T08:42:30.744Z,27.24
2022-08-26T08:45:09.522Z,27.33
2022-08-26T08:47:47.644Z,27.40
2022-08-26T08:50:25.661Z,27.44
2022-08-26T08:53:16.014Z,27.49
2022-08-26T08:56:06.452Z,27.52
2022-08-26T08:58:48.444Z,27.57
2022-08-26T09:01:29.787Z,27.61
2022-08-26T09:04:19.592Z,27.66
2022-08-26T09:09:36.305Z,27.68
2022-08-26T09:12:14.780Z,27.77
2022-08-26T09:14:49.112Z,27.83
2022-08-26T09:17:36.330Z,27.89
2022-08-26T09:20:20.235Z,27.95
2022-08-26T09:22:53.948Z,27.98
2022-08-26T09:25:26.626Z,27.99
2022-08-26T09:27:58.475Z,28.02
2022-08-26T09:30:34.595Z,28.09
2022-08-26T09:33:10.949Z,28.19
2022-08-26T09:35:47.648Z,28.25
2022-08-26T09:38:29.563Z,28.29
2022-08-26T09:41:05.137Z,28.28
2022-08-26T09:43:38.558Z,28.28
2022-08-26T09:46:20.974Z,28.34
2022-08-26T09:48:53.285Z,28.48
2022-08-26T09:51:31.797Z,28.54
2022-08-26T09:54:08.265Z,28.62
2022-08-26T09:56:42.891Z,28.64
2022-08-26T09:59:16.643Z,28.66
2022-08-26T10:01:51.205Z,28.68
2022-08-26T10:04:28.461Z,28.72
2022-08-26T10:07:02.982Z,28.77
2022-08-26T10:09:37.895Z,28.84
2022-08-26T10:12:14.855Z,28.92
2022-08-26T10:14:52.557Z,28.99
2022-08-26T10:17:30.935Z,29.07
2022-08-26T10:20:15.792Z,29.11
2022-08-26T10:23:00.267Z,29.13
2022-08-26T10:25:37.799Z,29.19
2022-08-26T10:28:13.802Z,29.26
2022-08-26T10:30:51.721Z,29.35
2022-08-26T10:33:24.398Z,29.40
2022-08-26T10:36:01.074Z,29.46
2022-08-26T10:38:37.753Z,29.57
2022-08-26T10:41:16.961Z,29.62
2022-08-26T10:43:53.861Z,29.71
2022-08-26T10:46:29.552Z,29.86
2022-08-26T10:49:06.864Z,29.95
2022-08-26T10:51:45.569Z,30.04
2022-08-26T10:54:21.640Z,30.10
2022-08-26T10:57:04.722Z,30.12
2022-08-26T10:59:51.970Z,30.10
2022-08-26T11:02:29.794Z,30.14
2022-08-26T11:05:04.520Z,30.14
2022-08-26T11:07:44.438Z,30.07
2022-08-26T11:10:57.987Z,29.96
2022-08-26T11:14:02.994Z,29.99
2022-08-26T11:16:42.961Z,30.15
2022-08-26T11:20:00.921Z,30.26
2022-08-26T11:22:48.036Z,30.24
2022-08-26T11:25:24.377Z,30.23
2022-08-26T11:28:01.248Z,30.26
2022-08-26T11:30:45.408Z,30.33
2022-08-26T11:34:01.995Z,30.49
2022-08-26T11:37:03.166Z,30.75
2022-08-26T11:39:54.036Z,30.88
2022-08-26T11:42:36.373Z,30.96
2022-08-26T11:45:19.708Z,31.01
2022-08-26T11:47:54.752Z,31.03
2022-08-26T11:50:29.902Z,31.11
2022-08-26T11:53:06.241Z,31.19
2022-08-26T11:55:47.385Z,31.32
2022-08-26T11:58:21.867Z,31.47
2022-08-26T12:00:59.164Z,31.65
2022-08-26T12:03:38.071Z,31.85
2022-08-26T12:06:17.939Z,31.81
2022-08-26T12:08:51.921Z,31.65
2022-08-26T12:11:26.729Z,31.57
2022-08-26T12:14:04.254Z,31.60
2022-08-26T12:16:41.635Z,31.76
2022-08-26T12:19:27.421Z,31.93
2022-08-26T12:22:05.477Z,32.17
2022-08-26T12:24:39.200Z,32.34
2022-08-26T12:27:19.405Z,32.45
2022-08-26T12:30:08.487Z,32.45
2022-08-26T12:32:56.543Z,32.51
2022-08-26T12:35:32.008Z,32.59
2022-08-26T12:38:05.509Z,32.58
2022-08-26T12:40:44.388Z,32.55
2022-08-26T12:43:44.235Z,32.57
2022-08-26T12:46:19.802Z,32.63
2022-08-26T12:48:53.387Z,32.84
2022-08-26T12:51:29.315Z,33.02
2022-08-26T12:54:06.878Z,32.93
2022-08-26T12:56:46.862Z,32.95
2022-08-26T13:00:07.826Z,32.82
2022-08-26T13:02:43.707Z,32.70
2022-08-26T13:09:10.894Z,32.87
2022-08-26T13:12:06.492Z,32.94
2022-08-26T13:15:06.498Z,33.05
2022-08-26T13:17:45.712Z,33.15
2022-08-26T13:20:20.758Z,33.11
2022-08-26T13:23:23.737Z,33.08
2022-08-26T13:26:03.730Z,33.15
2022-08-26T13:29:01.743Z,33.33
2022-08-26T13:32:02.654Z,33.57
2022-08-26T13:34:42.529Z,33.75
2022-08-26T13:37:40.116Z,33.83
2022-08-26T13:40:25.231Z,34.08
2022-08-26T13:43:31.098Z,34.13
2022-08-26T13:47:22.218Z,34.18
2022-08-26T13:50:03.678Z,34.31
2022-08-26T13:53:03.930Z,34.41
2022-08-26T13:59:29.263Z,34.41
2022-08-26T14:02:05.601Z,34.64
2022-08-26T14:12:01.093Z,34.79
2022-08-26T14:21:59.983Z,35.38
2022-08-26T14:24:38.371Z,35.31
2022-08-26T14:27:14.182Z,35.24
2022-08-26T14:29:48.343Z,35.17
2022-08-26T14:32:54.292Z,35.06
2022-08-26T14:35:29.541Z,35.04
2022-08-26T14:38:03.294Z,35.08
2022-08-26T14:40:37.750Z,34.97
2022-08-26T14:43:10.313Z,34.99
2022-08-26T14:45:45.794Z,35.00
2022-08-26T14:48:19.366Z,34.96
2022-08-26T14:50:51.629Z,34.86
2022-08-26T14:53:50.492Z,34.89
2022-08-26T14:56:23.876Z,35.07
2022-08-26T14:58:57.007Z,35.18
2022-08-26T15:01:32.304Z,35.17
2022-08-26T15:04:05.797Z,35.11
2022-08-26T15:06:39.466Z,35.02
2022-08-26T15:09:12.456Z,35.05
2022-08-26T15:11:47.659Z,35.16
2022-08-26T15:14:20.725Z,35.17
2022-08-26T15:16:56.018Z,35.25
2022-08-26T15:19:29.533Z,35.35
2022-08-26T15:22:01.439Z,35.52
2022-08-26T15:24:36.531Z,35.66
2022-08-26T15:27:09.155Z,35.42
2022-08-26T15:29:42.019Z,35.20
2022-08-26T15:32:14.379Z,35.35
2022-08-26T15:34:48.494Z,35.45
2022-08-26T15:37:21.541Z,35.39
2022-08-26T15:39:57.079Z,35.39
2022-08-26T15:42:30.131Z,35.50
2022-08-26T15:45:03.136Z,35.40
2022-08-26T15:47:38.127Z,35.29
2022-08-26T15:50:29.060Z,35.17
2022-08-26T15:53:01.663Z,35.21
2022-08-26T15:55:34.124Z,35.17
2022-08-26T15:58:08.493Z,35.17
2022-08-26T16:00:43.269Z,35.17
2022-08-26T16:03:21.132Z,35.06
2022-08-26T16:05:55.001Z,34.96
2022-08-26T16:08:27.364Z,34.79
2022-08-26T16:11:05.999Z,34.41
2022-08-26T16:13:40.140Z,33.97
2022-08-26T16:16:16.182Z,33.60
2022-08-26T16:18:50.632Z,33.16
2022-08-26T16:21:24.543Z,32.75
2022-08-26T16:23:57.964Z,32.40
2022-08-26T16:26:32.724Z,32.02
2022-08-26T16:29:08.788Z,31.66
2022-08-26T16:31:42.916Z,31.34
2022-08-26T16:34:17.909Z,31.10
2022-08-26T16:36:51.075Z,30.82
2022-08-26T16:39:23.779Z,30.55
2022-08-26T16:41:57.667Z,30.36
2022-08-26T16:44:30.829Z,30.10
2022-08-26T16:47:05.394Z,29.84
2022-08-26T16:49:37.443Z,29.63
2022-08-26T16:52:10.113Z,29.45
2022-08-26T16:54:44.981Z,29.26
2022-08-26T16:57:18.141Z,29.12
2022-08-26T16:59:50.391Z,28.99
2022-08-26T17:02:24.529Z,28.83
2022-08-26T17:05:01.130Z,28.65
2022-08-26T17:07:37.014Z,28.46
2022-08-26T17:10:10.851Z,28.29
2022-08-26T17:12:47.057Z,28.16
2022-08-26T17:15:27.204Z,28.02
2022-08-26T17:18:04.072Z,27.88
2022-08-26T17:21:02.224Z,27.73
2022-08-26T17:24:04.951Z,27.58
2022-08-26T17:26:48.398Z,27.41
2022-08-26T17:29:23.739Z,27.26
2022-08-26T17:32:34.538Z,27.10
2022-08-26T17:35:14.184Z,26.96
2022-08-26T17:37:49.141Z,26.85
2022-08-26T17:40:23.449Z,26.72
2022-08-26T17:42:58.880Z,26.61
2022-08-26T17:45:31.975Z,26.50
2022-08-26T17:48:08.566Z,26.40
2022-08-26T17:54:31.361Z,26.15
2022-08-26T17:57:10.604Z,26.05
2022-08-26T17:59:46.553Z,25.96
2022-08-26T18:02:24.449Z,25.87
2022-08-26T18:04:58.282Z,25.78
2022-08-26T18:07:37.736Z,25.70
2022-08-26T18:13:47.457Z,25.52
2022-08-26T18:16:27.550Z,25.45
2022-08-26T18:19:47.829Z,25.39
2022-08-26T18:22:22.015Z,25.31
2022-08-26T18:25:18.573Z,25.25
2022-08-26T18:27:52.303Z,25.18
2022-08-26T18:30:54.571Z,25.11
2022-08-26T18:33:53.331Z,25.04
2022-08-26T18:36:50.593Z,24.96
2022-08-26T18:45:30.813Z,24.73
2022-08-26T18:48:10.953Z,24.65
2022-08-26T18:50:47.429Z,24.57
2022-08-26T18:53:20.447Z,24.47
2022-08-26T18:57:07.770Z,24.38
2022-08-26T19:00:28.889Z,24.23
2022-08-26T19:03:48.842Z,24.10
2022-08-26T19:07:41.336Z,23.98
2022-08-26T19:11:04.923Z,23.85
2022-08-26T19:13:41.568Z,23.72
2022-08-26T19:19:50.106Z,23.52
2022-08-26T19:29:58.001Z,23.26
2022-08-26T19:32:34.778Z,23.19
2022-08-26T19:38:12.284Z,23.07
2022-08-26T19:40:46.843Z,23.01
2022-08-26T19:43:21.038Z,22.96
2022-08-26T19:45:57.642Z,22.90
2022-08-26T19:48:55.710Z,22.85
2022-08-26T19:51:35.535Z,22.79
2022-08-26T19:58:21.742Z,22.72
2022-08-26T20:00:54.522Z,22.66
2022-08-26T20:03:29.422Z,22.61
2022-08-26T20:06:27.719Z,22.56
2022-08-26T20:09:06.215Z,22.51
2022-08-26T20:12:08.966Z,22.47
2022-08-26T20:14:44.200Z,22.42
2022-08-26T20:17:41.635Z,22.38
2022-08-26T20:20:34.014Z,22.35
2022-08-26T20:23:53.788Z,22.30
2022-08-26T20:26:53.799Z,22.22
2022-08-26T20:29:26.351Z,22.17
2022-08-26T20:32:03.687Z,22.13
2022-08-26T20:34:39.589Z,22.09
2022-08-26T20:37:11.523Z,22.05
2022-08-26T20:40:08.350Z,22.02
2022-08-26T20:42:44.330Z,21.98
2022-08-26T20:45:17.060Z,21.93
2022-08-26T20:48:17.035Z,21.88
2022-08-26T20:50:50.965Z,21.82
2022-08-26T20:53:51.548Z,21.76
2022-08-26T20:56:53.391Z,21.70
2022-08-26T20:59:50.642Z,21.61
2022-08-26T21:02:50.822Z,21.53
2022-08-26T21:05:25.358Z,21.47
2022-08-26T21:07:59.187Z,21.41
2022-08-26T21:11:25.661Z,21.34
2022-08-26T21:14:07.148Z,21.26
2022-08-26T21:20:14.423Z,21.11
2022-08-26T21:23:12.081Z,21.04
2022-08-26T21:25:46.933Z,20.96
2022-08-26T21:28:21.837Z,20.89
2022-08-26T21:30:56.163Z,20.82
2022-08-26T21:34:24.657Z,20.75
2022-08-26T21:37:22.933Z,20.67
2022-08-26T21:43:33.729Z,20.53
2022-08-26T21:47:20.977Z,20.46
2022-08-26T21:50:27.975Z,20.38
2022-08-26T21:53:24.005Z,20.31
2022-08-26T21:55:57.017Z,20.26
2022-08-26T21:58:32.200Z,20.22
2022-08-26T22:01:12.356Z,20.18
2022-08-26T22:03:47.920Z,20.13
2022-08-26T22:06:24.400Z,20.07
2022-08-26T22:09:47.537Z,20.02
2022-08-26T22:12:43.409Z,19.96
2022-08-26T22:22:01.163Z,19.85
2022-08-26T22:24:57.688Z,19.81
2022-08-26T22:30:53.621Z,19.69
2022-08-26T22:33:27.355Z,19.65
2022-08-26T22:36:27.203Z,19.60
2022-08-26T22:39:05.324Z,19.53
2022-08-26T22:41:45.142Z,19.48
2022-08-26T22:44:19.218Z,19.44
2022-08-26T22:49:54.430Z,19.35
2022-08-26T22:52:31.961Z,19.33
2022-08-26T22:55:31.415Z,19.28
2022-08-26T22:58:30.921Z,19.23
2022-08-26T23:01:08.401Z,19.16
2022-08-26T23:04:09.696Z,19.10
2022-08-26T23:06:48.170Z,19.02
2022-08-26T23:13:08.208Z,18.94
2022-08-26T23:15:43.909Z,18.92
2022-08-26T23:18:21.861Z,18.95
2022-08-26T23:20:55.603Z,19.08
2022-08-26T23:23:28.882Z,19.24
2022-08-26T23:26:07.057Z,19.32
2022-08-26T23:28:39.726Z,19.36
2022-08-26T23:31:45.963Z,19.45
2022-08-26T23:34:42.240Z,19.47
2022-08-26T23:44:45.823Z,19.35
2022-08-26T23:47:23.715Z,19.31
2022-08-26T23:49:58.735Z,19.27
2022-08-26T23:56:21.946Z,19.21
2022-08-26T23:58:55.234Z,19.36
